Time;durP1;ratioP1;P1;durP2;ratioP2;P2;SDS_P1;SDS_P2;PMS_P1;PMS_P2;Temp;Humidity;BMP_temperature;BMP_pressure;BME280_temperature;BME280_humidity;BME280_pressure;Samples;Min_cycle;Max_cycle;Signal;HPM_P1;HPM_P2
2021/07/04 00:00:48;;;;;;;9.33;4.50;;;18.00;99.90;;;19.07;100.00;97796.31;5022386;28;20504;-80
2021/07/04 00:03:18;;;;;;;5.63;4.83;;;18.00;99.90;;;19.07;100.00;97798.97;5021814;28;20489;-80
2021/07/04 00:05:49;;;;;;;7.17;4.90;;;18.00;99.90;;;19.00;100.00;97787.75;5021460;28;21055;-80
2021/07/04 00:08:21;;;;;;;10.20;4.90;;;17.90;99.90;;;18.75;100.00;97787.41;5022307;28;20472;-81
2021/07/04 00:10:57;;;;;;;6.53;4.50;;;17.70;99.90;;;18.74;100.00;97780.53;5024045;28;20469;-80
2021/07/04 00:13:28;;;;;;;8.53;4.97;;;17.70;99.90;;;18.81;100.00;97781.16;5028284;28;20566;-81
2021/07/04 00:15:57;;;;;;;9.40;5.33;;;17.80;99.90;;;18.90;100.00;97780.47;5022377;28;20515;-80
2021/07/04 00:18:29;;;;;;;7.60;5.40;;;17.90;99.90;;;19.01;100.00;97776.09;5023771;28;20615;-80
2021/07/04 00:21:03;;;;;;;9.67;4.97;;;18.00;99.90;;;18.91;100.00;97781.28;5020938;28;21014;-80
2021/07/04 00:23:32;;;;;;;8.10;4.93;;;17.90;99.90;;;18.66;100.00;97784.41;5024544;28;20458;-81
2021/07/04 00:26:04;;;;;;;10.83;4.90;;;17.60;99.90;;;18.83;100.00;97779.03;5025517;28;20516;-80
2021/07/04 00:28:33;;;;;;;8.17;4.80;;;17.80;99.90;;;18.90;100.00;97780.47;5023056;28;20931;-80
2021/07/04 00:31:02;;;;;;;11.07;5.23;;;17.90;99.90;;;18.94;100.00;97776.28;5023306;28;20470;-80
2021/07/04 00:33:30;;;;;;;7.53;4.70;;;17.90;99.90;;;18.89;100.00;97772.75;5022496;28;20502;-81
2021/07/04 00:35:59;;;;;;;6.40;4.93;;;17.90;99.90;;;18.89;100.00;97772.75;5024528;28;20964;-80
2021/07/04 00:38:28;;;;;;;8.90;4.77;;;17.90;99.90;;;18.76;100.00;97767.81;5020908;28;20480;-81
2021/07/04 00:40:56;;;;;;;5.47;4.33;;;17.70;99.90;;;18.58;100.00;97767.06;5022796;28;20889;-80
2021/07/04 00:43:27;;;;;;;7.90;4.80;;;17.60;99.90;;;18.46;100.00;97757.63;5022810;28;20474;-80
2021/07/04 00:45:56;;;;;;;8.90;5.40;;;17.40;99.90;;;18.43;100.00;97764.19;5019207;28;20813;-80
2021/07/04 00:48:25;;;;;;;12.50;5.27;;;17.40;99.90;;;18.55;100.00;97764.91;5029137;28;20454;-81
2021/07/04 00:50:54;;;;;;;8.43;5.80;;;17.50;99.90;;;18.68;100.00;97765.59;5030310;28;20860;-81
2021/07/04 00:53:23;;;;;;;7.90;5.00;;;17.60;99.90;;;18.66;100.00;97768.50;5023636;28;21251;-81
2021/07/04 00:55:52;;;;;;;11.30;5.50;;;17.70;99.90;;;18.62;100.00;97769.22;5026133;28;20466;-80
2021/07/04 00:58:21;;;;;;;15.27;5.13;;;17.60;99.90;;;18.68;100.00;97768.25;5023690;28;20512;-80
2021/07/04 01:00:51;;;;;;;7.87;4.93;;;17.60;99.90;;;18.76;100.00;97762.53;5022737;28;20534;-80
2021/07/04 01:03:20;;;;;;;13.60;5.37;;;17.70;99.90;;;18.72;100.00;97772.00;5025116;28;20466;-80
2021/07/04 01:05:49;;;;;;;10.30;5.13;;;17.70;99.90;;;18.66;100.00;97768.50;5025755;28;20482;-81
2021/07/04 01:08:17;;;;;;;10.77;5.30;;;17.70;99.90;;;18.63;100.00;97769.00;5024238;28;21055;-80
2021/07/04 01:10:46;;;;;;;11.00;5.27;;;17.60;99.90;;;18.51;100.00;97768.28;5025657;28;20539;-80
2021/07/04 01:13:15;;;;;;;7.73;4.80;;;17.50;99.90;;;18.56;100.00;97766.53;5025520;28;20489;-81
2021/07/04 01:15:45;;;;;;;9.37;5.30;;;17.50;99.90;;;18.62;100.00;97767.38;5022294;28;20965;-81
2021/07/04 01:18:15;;;;;;;11.70;5.10;;;17.60;99.90;;;18.62;100.00;97766.59;5018510;28;20519;-80
2021/07/04 01:20:44;;;;;;;9.73;5.70;;;17.60;99.90;;;18.70;100.00;97771.47;5024190;28;20875;-80
2021/07/04 01:23:16;;;;;;;6.97;5.10;;;17.70;99.90;;;18.72;100.00;97770.16;5027824;28;20478;-80
2021/07/04 01:25:49;;;;;;;8.00;5.40;;;17.70;99.90;;;18.76;100.00;97773.94;5019423;28;20463;-80
2021/07/04 01:28:18;;;;;;;10.30;5.40;;;17.80;99.90;;;18.80;100.00;97768.94;5025416;28;20466;-80
2021/07/04 01:30:54;;;;;;;8.63;4.63;;;17.80;99.90;;;18.85;100.00;97771.63;5019027;28;20516;-80
2021/07/04 01:33:23;;;;;;;7.00;5.03;;;17.80;99.90;;;18.87;100.00;97766.91;5025030;28;20498;-80
2021/07/04 01:35:51;;;;;;;8.60;5.20;;;17.90;99.90;;;18.87;100.00;97769.56;5023720;28;20520;-80
2021/07/04 01:38:21;;;;;;;9.33;5.17;;;17.90;99.90;;;18.86;100.00;97763.47;5023730;28;20508;-80
2021/07/04 01:40:50;;;;;;;7.30;4.80;;;17.80;99.90;;;18.83;100.00;97765.78;5025554;28;20557;-81
2021/07/04 01:43:19;;;;;;;5.87;4.90;;;17.90;99.90;;;18.71;100.00;97765.13;5022884;28;20508;-81
2021/07/04 01:45:49;;;;;;;6.27;4.47;;;17.70;99.90;;;18.71;100.00;97760.59;5025590;28;20548;-80
2021/07/04 01:48:18;;;;;;;13.60;4.90;;;17.70;99.90;;;18.69;100.00;97765.38;5021698;28;20458;-80
2021/07/04 01:50:50;;;;;;;7.60;4.83;;;17.70;99.90;;;18.70;100.00;97766.16;5020660;28;20514;-80
2021/07/04 01:53:22;;;;;;;10.37;4.90;;;17.60;99.90;;;18.65;100.00;97764.25;5026029;28;21102;-80
2021/07/04 01:55:51;;;;;;;6.97;5.20;;;17.60;99.90;;;18.60;100.00;97758.91;5017363;28;20467;-80
2021/07/04 01:58:19;;;;;;;7.83;4.50;;;17.60;99.90;;;18.27;100.00;97753.63;5021693;28;20516;-80
2021/07/04 02:00:48;;;;;;;10.77;5.10;;;17.30;99.90;;;18.31;100.00;97750.25;5020646;28;20962;-80
2021/07/04 02:03:17;;;;;;;7.83;5.00;;;17.30;99.90;;;18.29;100.00;97757.63;5020368;28;20502;-80
2021/07/04 02:05:46;;;;;;;8.90;5.60;;;17.20;99.90;;;18.39;100.00;97752.50;5027990;28;20482;-80
2021/07/04 02:08:14;;;;;;;8.57;5.07;;;17.30;99.90;;;18.43;100.00;97753.59;5027068;28;20458;-80
2021/07/04 02:10:45;;;;;;;12.70;5.60;;;17.40;99.90;;;18.42;100.00;97752.00;5024105;28;20529;-80
2021/07/04 02:13:14;;;;;;;8.53;4.90;;;17.40;99.90;;;18.30;100.00;97756.59;5020520;28;20519;-80
2021/07/04 02:15:43;;;;;;;16.33;5.40;;;17.30;99.90;;;18.23;100.00;97753.31;5021072;28;20466;-80
2021/07/04 02:18:15;;;;;;;9.40;5.30;;;17.20;99.90;;;18.32;100.00;97749.22;5024022;28;20468;-80
2021/07/04 02:20:47;;;;;;;11.50;5.73;;;17.30;99.90;;;18.31;100.00;97752.09;5024301;28;20461;-80
2021/07/04 02:23:19;;;;;;;12.90;5.13;;;17.30;99.90;;;18.31;100.00;97739.66;5018267;28;20488;-80
2021/07/04 02:25:50;;;;;;;12.73;5.43;;;17.30;99.90;;;18.35;100.00;97734.69;5019023;28;20471;-80
2021/07/04 02:28:21;;;;;;;8.47;5.30;;;17.30;99.90;;;18.24;100.00;97741.69;5024036;28;20462;-80
2021/07/04 02:30:53;;;;;;;11.53;5.73;;;17.20;99.90;;;18.08;100.00;97747.81;5023776;28;20458;-80
2021/07/04 02:33:23;;;;;;;9.83;5.83;;;17.10;99.90;;;17.94;100.00;97746.53;5020602;28;20461;-80
2021/07/04 02:35:55;;;;;;;9.10;6.20;;;16.90;99.90;;;18.07;100.00;97748.84;5019455;28;21038;-80
2021/07/04 02:38:25;;;;;;;8.40;5.57;;;17.00;99.90;;;18.21;100.00;97744.81;5021675;28;20515;-81
2021/07/04 02:40:56;;;;;;;11.30;6.00;;;17.20;99.90;;;18.30;100.00;97747.84;5024731;28;20744;-80
2021/07/04 02:43:26;;;;;;;10.33;4.93;;;17.30;99.90;;;18.23;100.00;97750.66;5020403;28;20583;-80
2021/07/04 02:45:56;;;;;;;6.87;5.83;;;17.20;99.90;;;18.30;100.00;97753.13;5024990;28;20492;-81
2021/07/04 02:48:24;;;;;;;6.73;5.27;;;17.30;99.90;;;18.10;100.00;97748.34;5020593;28;20463;-81
2021/07/04 02:50:53;;;;;;;9.60;5.80;;;17.10;99.90;;;18.13;100.00;97749.72;5021816;28;20458;-81
2021/07/04 02:53:21;;;;;;;8.27;5.30;;;17.10;99.90;;;18.18;100.00;97752.44;5019309;28;20513;-80
2021/07/04 02:55:50;;;;;;;9.60;5.50;;;17.10;99.90;;;18.06;100.00;97742.75;5023922;28;20535;-80
2021/07/04 02:58:20;;;;;;;9.23;5.03;;;17.00;99.90;;;18.04;100.00;97751.97;5024449;28;21238;-80
2021/07/04 03:00:48;;;;;;;7.47;5.73;;;16.90;99.90;;;17.89;100.00;97757.03;5022150;28;20522;-80
2021/07/04 03:03:17;;;;;;;10.40;5.50;;;16.80;99.90;;;17.77;100.00;97759.72;5017681;28;20892;-80
2021/07/04 03:05:45;;;;;;;8.77;5.67;;;16.70;99.90;;;17.74;100.00;97760.22;5018164;28;20482;-80
2021/07/04 03:08:14;;;;;;;9.27;5.10;;;16.70;99.90;;;17.92;100.00;97756.53;5029512;28;20462;-80
2021/07/04 03:10:42;;;;;;;8.47;5.80;;;16.90;99.90;;;17.88;100.00;97758.84;5027948;28;20891;-81
2021/07/04 03:13:11;;;;;;;8.97;5.97;;;16.90;99.90;;;17.88;100.00;97755.41;5024328;28;20854;-80
2021/07/04 03:15:41;;;;;;;9.93;5.40;;;16.80;99.90;;;17.88;100.00;97758.84;5028691;28;20584;-80
2021/07/04 03:18:10;;;;;;;8.00;5.00;;;16.80;99.90;;;17.77;100.00;97761.59;5026348;28;21012;-80
2021/07/04 03:20:38;;;;;;;9.53;6.10;;;16.70;99.90;;;17.73;100.00;97757.81;5027501;28;20458;-80
2021/07/04 03:23:07;;;;;;;9.50;5.40;;;16.70;99.90;;;17.55;100.00;97767.56;5029505;28;20495;-80
2021/07/04 03:25:36;;;;;;;7.97;5.53;;;16.50;99.90;;;17.52;100.00;97765.38;5024365;28;20463;-80
2021/07/04 03:28:05;;;;;;;9.80;5.77;;;16.40;99.90;;;17.58;100.00;97764.47;5030450;28;20462;-80
2021/07/04 03:30:33;;;;;;;19.70;5.77;;;16.50;99.90;;;17.67;100.00;97762.22;5022083;28;20523;-81
2021/07/04 03:33:04;;;;;;;11.40;5.30;;;16.60;99.90;;;17.56;100.00;97758.59;5023355;28;20486;-80
2021/07/04 03:35:32;;;;;;;8.80;5.80;;;16.50;99.90;;;17.55;100.00;97750.88;5021154;28;20497;-80
2021/07/04 03:38:01;;;;;;;8.83;6.07;;;16.50;99.90;;;17.49;100.00;97762.41;5026000;28;20488;-80
2021/07/04 03:40:29;;;;;;;6.53;5.33;;;16.40;99.90;;;17.41;100.00;97753.03;5026045;28;21003;-81
2021/07/04 03:42:58;;;;;;;8.03;5.77;;;16.30;99.90;;;17.41;100.00;97758.31;5022390;28;20481;-80
2021/07/04 03:45:27;;;;;;;8.47;5.90;;;16.30;99.90;;;17.44;100.00;97755.19;5026008;28;20972;-80
2021/07/04 03:47:55;;;;;;;18.90;6.30;;;16.30;99.90;;;17.44;100.00;97749.09;5023122;28;20528;-80
2021/07/04 03:50:25;;;;;;;7.77;5.80;;;16.30;99.90;;;17.51;100.00;97750.56;5025472;28;20952;-80
2021/07/04 03:52:56;;;;;;;9.93;6.40;;;16.40;99.90;;;17.55;100.00;97746.41;5018081;28;20467;-80
2021/07/04 03:55:25;;;;;;;14.30;6.53;;;16.50;99.90;;;17.56;100.00;97758.59;5022950;28;20489;-82
2021/07/04 03:57:54;;;;;;;9.33;5.70;;;16.50;99.90;;;17.68;100.00;97755.09;5019727;28;20466;-80
2021/07/04 04:00:23;;;;;;;8.23;5.67;;;16.70;99.90;;;17.67;100.00;97754.28;5024261;28;20486;-82
2021/07/04 04:02:52;;;;;;;11.30;5.80;;;16.70;99.90;;;17.66;100.00;97744.75;5023241;28;20535;-80
2021/07/04 04:05:20;;;;;;;7.10;5.60;;;16.70;99.90;;;17.59;100.00;97752.84;5024373;28;20532;-80
2021/07/04 04:07:50;;;;;;;10.07;5.37;;;16.50;99.90;;;17.59;100.00;97752.03;5024369;28;20820;-80
2021/07/04 04:10:19;;;;;;;21.93;12.63;;;16.50;99.90;;;17.57;100.00;97757.56;5027283;28;21041;-81
2021/07/04 04:12:47;;;;;;;14.07;6.30;;;16.50;99.90;;;17.67;100.00;97748.22;5021071;28;20844;-81
2021/07/04 04:15:16;;;;;;;8.67;6.17;;;16.70;99.90;;;17.68;100.00;97749.78;5019865;28;20513;-80
2021/07/04 04:17:44;;;;;;;6.50;5.40;;;16.70;99.90;;;17.72;100.00;97751.72;5021640;28;20813;-80
2021/07/04 04:20:14;;;;;;;9.20;5.70;;;16.80;99.90;;;17.77;100.00;97758.97;5018212;28;20465;-80
2021/07/04 04:22:42;;;;;;;18.13;6.97;;;16.80;99.90;;;17.81;100.00;97765.34;5030115;28;20450;-80
2021/07/04 04:25:13;;;;;;;8.67;5.80;;;16.80;99.90;;;17.82;100.00;97769.59;5030133;28;20450;-80
2021/07/04 04:27:41;;;;;;;10.60;5.87;;;16.80;99.90;;;17.59;100.00;97773.19;5030064;28;20443;-80
2021/07/04 04:30:12;;;;;;;7.50;5.70;;;16.50;99.90;;;17.46;100.00;97771.59;5030166;28;20500;-80
2021/07/04 04:32:40;;;;;;;10.13;5.80;;;16.40;99.90;;;17.59;100.00;97774.00;5029811;28;20495;-80
2021/07/04 04:35:10;;;;;;;9.50;6.07;;;16.50;99.90;;;17.64;100.00;97775.09;5028851;28;20485;-80
2021/07/04 04:37:39;;;;;;;8.50;6.30;;;16.60;99.90;;;17.60;100.00;97766.84;5027949;28;20964;-81
2021/07/04 04:40:09;;;;;;;17.00;6.30;;;16.60;99.90;;;17.65;100.00;97761.66;5029978;28;20446;-80
2021/07/04 04:42:39;;;;;;;13.00;6.23;;;16.60;99.90;;;17.60;100.00;97767.66;5029426;28;20465;-80
2021/07/04 04:45:10;;;;;;;10.20;5.87;;;16.50;99.90;;;17.69;100.00;97764.63;5029098;28;20456;-80
2021/07/04 04:47:38;;;;;;;11.70;6.30;;;16.60;99.90;;;17.65;100.00;97766.94;5026542;28;20439;-80
2021/07/04 04:50:09;;;;;;;9.93;5.60;;;16.60;99.90;;;17.67;100.00;97764.06;5028914;28;21126;-80
2021/07/04 04:52:39;;;;;;;9.70;6.43;;;16.60;99.90;;;17.71;100.00;97758.06;5029021;28;20504;-80
2021/07/04 04:55:11;;;;;;;8.10;6.07;;;16.70;99.90;;;17.70;100.00;97756.44;5023408;28;20533;-80
2021/07/04 04:57:41;;;;;;;8.30;5.30;;;16.70;99.90;;;17.72;100.00;97750.91;5021901;28;20465;-80
2021/07/04 05:00:13;;;;;;;7.87;5.47;;;16.70;99.90;;;17.74;100.00;97743.53;5022705;28;20467;-80
2021/07/04 05:02:44;;;;;;;7.37;5.83;;;16.70;99.90;;;17.83;100.00;97731.53;5018885;28;20510;-80
2021/07/04 05:05:14;;;;;;;6.87;6.00;;;16.80;99.90;;;17.90;100.00;97732.97;5020064;28;20488;-83
2021/07/04 05:07:43;;;;;;;10.80;7.17;;;16.90;99.90;;;17.93;100.00;97729.03;5023117;28;20461;-80
2021/07/04 05:10:13;;;;;;;9.03;5.97;;;16.90;99.90;;;18.00;100.00;97727.03;5026040;28;20823;-80
2021/07/04 05:12:43;;;;;;;15.60;6.07;;;17.00;99.90;;;18.07;100.00;97723.19;5025639;28;20462;-80
2021/07/04 05:15:12;;;;;;;7.03;5.63;;;17.10;99.90;;;18.08;100.00;97719.47;5024912;28;20856;-80
2021/07/04 05:17:41;;;;;;;7.43;5.97;;;17.10;99.90;;;18.11;100.00;97723.50;5021390;28;20474;-80
2021/07/04 05:20:11;;;;;;;8.63;5.70;;;17.20;99.90;;;18.17;100.00;97719.88;5028350;28;20557;-80
2021/07/04 05:22:40;;;;;;;10.07;6.07;;;17.30;99.90;;;18.21;100.00;97718.34;5019070;28;20446;-80
2021/07/04 05:25:11;;;;;;;10.33;5.97;;;17.30;99.90;;;18.28;100.00;97718.97;5021568;28;20461;-80
2021/07/04 05:27:39;;;;;;;11.37;6.70;;;17.40;99.90;;;18.35;100.00;97718.81;5027979;28;20504;-80
2021/07/04 05:30:11;;;;;;;8.93;5.97;;;17.40;99.90;;;18.39;100.00;97720.72;5030629;28;20528;-80
2021/07/04 05:32:40;;;;;;;9.20;5.80;;;17.50;99.90;;;18.42;100.00;97714.94;5022962;28;20496;-80
2021/07/04 05:35:11;;;;;;;9.30;6.43;;;17.50;99.90;;;18.46;100.00;97708.09;5021459;28;20446;-80
2021/07/04 05:37:39;;;;;;;9.50;6.60;;;17.50;99.90;;;18.49;100.00;97707.63;5026565;28;20454;-79
2021/07/04 05:40:13;;;;;;;40.67;26.40;;;17.50;99.90;;;18.54;100.00;97702.38;5019336;28;20467;-81
2021/07/04 05:42:43;;;;;;;11.17;8.10;;;17.60;99.90;;;18.58;100.00;97697.41;5014628;28;20461;-81
2021/07/04 05:45:23;;;;;;;9.53;6.40;;;17.70;99.90;;;18.64;100.00;97699.06;5019790;28;20865;-80
2021/07/04 05:47:53;;;;;;;9.40;6.40;;;17.70;99.90;;;18.70;100.00;97694.66;5019678;28;20881;-80
2021/07/04 05:50:22;;;;;;;6.77;5.83;;;17.70;99.90;;;18.74;100.00;97703.69;5020925;28;20466;-80
2021/07/04 05:52:50;;;;;;;7.70;5.77;;;17.80;99.90;;;18.78;100.00;97702.94;5023929;28;21206;-80
2021/07/04 05:55:19;;;;;;;10.00;7.33;;;17.90;99.90;;;18.80;100.00;97692.91;5025656;28;21074;-80
2021/07/04 05:57:47;;;;;;;8.77;6.67;;;17.90;99.90;;;18.86;100.00;97683.16;5022089;28;20466;-80
2021/07/04 06:00:19;;;;;;;8.17;6.10;;;18.00;99.90;;;18.91;100.00;97691.19;5021388;28;20471;-80
2021/07/04 06:02:47;;;;;;;12.30;6.77;;;18.00;99.90;;;18.96;100.00;97691.22;5021340;28;20466;-80
2021/07/04 06:05:17;;;;;;;8.13;6.07;;;18.00;99.90;;;18.99;100.00;97688.06;5022364;28;20921;-80
2021/07/04 06:07:46;;;;;;;11.27;6.10;;;18.00;99.90;;;19.04;100.00;97688.13;5026040;28;20480;-81
2021/07/04 06:10:14;;;;;;;9.00;6.20;;;18.10;99.90;;;19.07;100.00;97692.94;5026846;28;20489;-81
2021/07/04 06:12:43;;;;;;;9.07;6.73;;;18.20;99.90;;;19.13;100.00;97691.13;5021661;28;20524;-80
2021/07/04 06:15:14;;;;;;;8.37;5.37;;;18.30;99.90;;;19.15;100.00;97689.84;5022411;28;20553;-80
2021/07/04 06:17:45;;;;;;;7.93;5.93;;;18.40;99.90;;;19.18;100.00;97676.06;5023462;28;21136;-80
2021/07/04 06:20:16;;;;;;;10.70;5.67;;;18.40;99.90;;;19.23;100.00;97677.97;5025220;28;20465;-81
2021/07/04 06:22:46;;;;;;;5.43;4.80;;;18.40;99.90;;;19.23;100.00;97678.75;5022270;28;20466;-81
2021/07/04 06:25:16;;;;;;;5.23;4.73;;;18.40;99.90;;;19.28;100.00;97676.16;5018464;28;20466;-80
2021/07/04 06:27:44;;;;;;;6.90;4.37;;;18.50;99.90;;;19.31;100.00;97680.97;5018843;28;20470;-81
2021/07/04 06:30:14;;;;;;;5.10;4.00;;;18.50;99.90;;;19.33;100.00;97689.47;5022726;28;20828;-80
2021/07/04 06:32:44;;;;;;;6.90;5.10;;;18.50;99.90;;;19.38;100.00;97694.81;5020741;28;20520;-80
2021/07/04 06:35:15;;;;;;;6.10;4.17;;;18.50;99.90;;;19.44;100.00;97693.03;5014055;28;20471;-80
2021/07/04 06:37:45;;;;;;;5.10;4.30;;;18.60;99.90;;;19.49;100.00;97685.94;5020299;28;20693;-81
2021/07/04 06:40:16;;;;;;;11.43;4.37;;;18.70;99.90;;;19.59;100.00;97687.88;5026177;28;20474;-80
2021/07/04 06:42:44;;;;;;;4.63;4.00;;;18.70;99.90;;;19.65;100.00;97684.19;5027355;28;20454;-80
2021/07/04 06:45:15;;;;;;;4.60;3.40;;;18.80;99.90;;;19.71;100.00;97685.03;5022035;28;20528;-80
2021/07/04 06:47:46;;;;;;;40.93;23.17;;;18.90;99.90;;;19.76;100.00;97683.22;5022725;28;20465;-83
2021/07/04 06:50:17;;;;;;;8.10;5.00;;;18.90;99.90;;;19.85;100.00;97680.91;5013126;28;20455;-81
2021/07/04 06:52:47;;;;;;;6.00;4.40;;;19.00;99.90;;;19.92;100.00;97679.59;5021679;28;20458;-81
2021/07/04 06:55:18;;;;;;;4.87;3.37;;;19.00;99.90;;;19.96;100.00;97682.56;5021238;28;20826;-81
2021/07/04 06:57:46;;;;;;;8.20;3.70;;;19.10;99.90;;;20.03;100.00;97673.31;5019853;28;20538;-80
2021/07/04 07:00:18;;;;;;;16.50;9.87;;;19.20;99.90;;;20.11;100.00;97669.38;5019490;28;20814;-81
2021/07/04 07:02:48;;;;;;;10.93;4.23;;;19.30;99.90;;;20.23;100.00;97675.31;5016432;28;21867;-81
2021/07/04 07:05:19;;;;;;;5.60;3.67;;;19.40;99.90;;;20.34;100.00;97676.97;5023314;28;20473;-81
2021/07/04 07:07:48;;;;;;;5.10;3.30;;;19.50;99.90;;;20.43;100.00;97670.13;5022907;28;20477;-80
2021/07/04 07:10:17;;;;;;;65.83;38.40;;;19.60;99.90;;;20.53;100.00;97672.00;5022392;28;20462;-80
2021/07/04 07:12:46;;;;;;;7.80;3.50;;;19.80;99.90;;;20.63;100.00;97671.25;5018671;28;20478;-81
2021/07/04 07:15:16;;;;;;;5.50;3.70;;;19.90;99.90;;;20.72;100.00;97665.16;5021454;28;20813;-81
2021/07/04 07:17:45;;;;;;;4.40;2.93;;;20.00;99.90;;;20.83;100.00;97666.00;5023097;28;20498;-81
2021/07/04 07:20:15;;;;;;;2.30;1.90;;;20.10;99.90;;;20.86;100.00;97652.19;5023637;28;20520;-81
2021/07/04 07:22:45;;;;;;;2.63;2.20;;;20.10;99.90;;;20.87;100.00;97659.09;5024503;28;20450;-81
2021/07/04 07:25:15;;;;;;;2.80;2.60;;;20.10;99.90;;;20.94;100.00;97656.97;5021590;28;20446;-81
2021/07/04 07:27:44;;;;;;;3.83;2.13;;;20.10;99.90;;;20.97;100.00;97657.25;5027060;28;20457;-81
2021/07/04 07:30:14;;;;;;;3.50;2.37;;;20.20;99.90;;;21.03;100.00;97650.88;5021838;28;20455;-81
2021/07/04 07:32:43;;;;;;;4.70;2.37;;;20.30;99.90;;;21.12;100.00;97648.53;5019575;28;20779;-81
2021/07/04 07:35:14;;;;;;;4.90;2.73;;;20.40;99.90;;;21.20;100.00;97656.00;5019294;28;20484;-81
2021/07/04 07:37:43;;;;;;;3.50;2.50;;;20.40;99.90;;;21.29;100.00;97653.59;5026430;28;20552;-81
2021/07/04 07:40:12;;;;;;;2.60;2.20;;;20.50;99.90;;;21.38;100.00;97647.50;5027341;28;20442;-81
2021/07/04 07:42:41;;;;;;;4.73;2.50;;;20.70;99.90;;;21.43;100.00;97636.88;5020119;28;20482;-81
2021/07/04 07:45:11;;;;;;;4.43;3.00;;;20.70;99.90;;;21.50;100.00;97633.94;5021670;28;20876;-81
2021/07/04 07:47:39;;;;;;;3.07;2.70;;;20.70;99.90;;;21.56;100.00;97638.19;5017219;28;20480;-81
2021/07/04 07:50:09;;;;;;;3.63;2.70;;;20.70;99.90;;;21.56;100.00;97622.22;5018782;28;20508;-81
2021/07/04 07:52:39;;;;;;;4.27;3.53;;;20.80;99.90;;;21.58;100.00;97620.91;5016205;28;20443;-81
2021/07/04 07:55:11;;;;;;;5.37;3.30;;;20.80;99.90;;;21.57;100.00;97608.66;5030629;28;20994;-81
2021/07/04 07:57:41;;;;;;;5.93;3.67;;;20.80;99.90;;;21.66;100.00;97608.13;5025346;28;20546;-81
2021/07/04 08:00:13;;;;;;;3.70;3.10;;;20.80;99.90;;;21.68;100.00;97613.94;5022211;28;20838;-81
2021/07/04 08:02:42;;;;;;;4.13;3.73;;;20.90;99.90;;;21.70;100.00;97615.28;5026088;28;20442;-81
2021/07/04 08:05:12;;;;;;;4.63;3.50;;;20.90;99.90;;;21.68;100.00;97614.75;5027655;28;20470;-81
2021/07/04 08:07:42;;;;;;;5.27;3.40;;;20.90;99.90;;;21.63;100.00;97624.59;5020844;28;20472;-81
2021/07/04 08:10:13;;;;;;;4.83;3.50;;;20.80;99.90;;;21.53;100.00;97628.06;5020817;28;20481;-81
2021/07/04 08:12:42;;;;;;;9.10;3.60;;;20.70;99.90;;;21.43;100.00;97623.56;5025032;28;21126;-81
2021/07/04 08:15:13;;;;;;;5.37;3.93;;;20.60;99.90;;;21.47;100.00;97634.47;5015212;28;20451;-81
2021/07/04 08:17:42;;;;;;;3.63;3.07;;;20.60;99.90;;;21.38;100.00;97633.41;5019211;28;20494;-81
2021/07/04 08:20:14;;;;;;;4.47;3.73;;;20.50;99.90;;;21.33;100.00;97628.88;5015639;28;20509;-81
2021/07/04 08:22:44;;;;;;;4.50;3.50;;;20.40;99.90;;;21.38;100.00;97628.88;5021847;28;20559;-81
2021/07/04 08:25:15;;;;;;;4.80;3.50;;;20.50;99.90;;;21.40;100.00;97623.28;5021942;28;20487;-81
2021/07/04 08:27:45;;;;;;;4.83;3.57;;;20.50;99.90;;;21.42;100.00;97629.13;5030047;28;20484;-81
2021/07/04 08:30:16;;;;;;;4.30;3.40;;;20.50;99.90;;;21.36;100.00;97623.03;5025039;28;20493;-81
2021/07/04 08:32:45;;;;;;;5.13;4.30;;;20.40;99.90;;;21.35;100.00;97626.75;5021465;28;20450;-81
2021/07/04 08:35:15;;;;;;;4.20;3.60;;;20.50;99.90;;;21.44;100.00;97611.06;5029728;28;20500;-81
2021/07/04 08:37:45;;;;;;;7.40;3.37;;;20.50;99.90;;;21.51;100.00;97614.25;5014758;28;20502;-81
2021/07/04 08:40:16;;;;;;;5.80;3.70;;;20.70;99.90;;;21.56;100.00;97604.38;5019660;28;20513;-81
2021/07/04 08:42:44;;;;;;;3.90;3.50;;;20.70;99.90;;;21.65;100.00;97604.66;5022709;28;20466;-81
2021/07/04 08:45:13;;;;;;;5.77;4.30;;;20.80;99.90;;;21.68;100.00;97603.31;5027535;28;20996;-81
2021/07/04 08:47:42;;;;;;;8.53;3.87;;;20.70;99.90;;;21.71;100.00;97608.09;5019839;28;20446;-81
2021/07/04 08:50:13;;;;;;;5.20;3.73;;;20.90;99.90;;;21.78;100.00;97603.28;5019788;28;20447;-81
2021/07/04 08:52:42;;;;;;;5.07;3.30;;;21.00;99.90;;;21.78;100.00;97592.63;5024366;28;20940;-81
2021/07/04 08:55:12;;;;;;;4.00;3.33;;;20.90;99.90;;;21.78;100.00;97595.31;5029551;28;20458;-81
2021/07/04 08:57:41;;;;;;;5.27;3.87;;;20.90;99.90;;;21.80;100.00;97595.81;5024659;28;20499;-81
2021/07/04 09:00:17;;;;;;;5.60;3.60;;;21.00;99.90;;;21.79;100.00;97591.56;5030099;28;20797;-81
2021/07/04 09:02:46;;;;;;;6.67;4.17;;;21.00;99.90;;;21.81;100.00;97592.91;5029328;28;20449;-81
2021/07/04 09:05:15;;;;;;;5.30;3.50;;;21.00;99.90;;;21.81;100.00;97592.91;5019714;28;20985;-81
2021/07/04 09:07:45;;;;;;;6.40;4.17;;;20.90;99.90;;;21.79;100.00;97592.38;5022776;28;21020;-81
2021/07/04 09:10:23;;;;;;;4.97;4.07;;;21.00;99.90;;;21.77;100.00;97596.34;5028222;28;20817;-81
2021/07/04 09:12:54;;;;;;;6.20;4.30;;;21.00;99.90;;;21.68;100.00;97597.97;5020732;28;20924;-81
2021/07/04 09:15:27;;;;;;;4.40;3.77;;;20.80;99.90;;;21.68;100.00;97601.44;5029477;28;20450;-81
2021/07/04 09:17:59;;;;;;;5.33;4.03;;;20.80;99.90;;;21.66;100.00;97597.47;5027035;28;20531;-81
2021/07/04 09:20:38;;;;;;;6.73;4.40;;;20.80;99.90;;;21.51;100.00;97588.44;5029100;28;20499;-81
2021/07/04 09:23:06;;;;;;;7.93;4.77;;;20.60;99.90;;;21.43;100.00;97586.31;5027558;28;20863;-81
2021/07/04 09:25:41;;;;;;;6.10;4.27;;;20.50;99.90;;;21.47;100.00;97581.25;5024655;28;20451;-81
2021/07/04 09:28:12;;;;;;;5.47;4.53;;;20.60;99.90;;;21.38;100.00;97583.63;5033210;28;20939;-81
2021/07/04 09:30:44;;;;;;;6.67;4.53;;;20.60;99.90;;;21.40;100.00;97581.53;5023717;28;20454;-81
2021/07/04 09:33:16;;;;;;;5.80;4.60;;;20.60;99.90;;;21.40;100.00;97589.50;5021679;28;20474;-81
2021/07/04 09:35:58;;;;;;;5.87;4.00;;;20.50;99.90;;;21.40;100.00;97589.50;5024522;28;20442;-81
2021/07/04 09:38:33;;;;;;;13.67;7.77;;;20.50;99.90;;;21.42;100.00;97584.69;5028498;28;20567;-83
2021/07/04 09:41:06;;;;;;;7.00;5.00;;;20.50;99.90;;;21.45;100.00;97586.81;5026132;28;20516;-81
2021/07/04 09:43:37;;;;;;;7.00;3.70;;;20.50;99.90;;;21.43;100.00;97586.31;5019872;28;20454;-80
2021/07/04 09:46:08;;;;;;;4.50;3.97;;;20.50;99.90;;;21.43;100.00;97580.97;5016690;28;20513;-80
2021/07/04 09:48:41;;;;;;;5.30;3.87;;;20.50;99.90;;;21.47;100.00;97581.25;5010907;28;20534;-80
2021/07/04 09:51:17;;;;;;;4.50;4.00;;;20.60;99.90;;;21.44;100.00;97579.94;5012590;28;20454;-80
2021/07/04 09:53:49;;;;;;;5.03;3.93;;;20.50;99.90;;;21.48;100.00;97574.88;5026703;28;20449;-81
2021/07/04 09:56:22;;;;;;;3.90;3.50;;;20.50;99.90;;;21.50;100.00;97570.06;5026280;28;20465;-81
2021/07/04 09:58:54;;;;;;;4.50;3.63;;;20.60;99.90;;;21.58;100.00;97558.88;5025821;28;20552;-81
2021/07/04 10:01:37;;;;;;;4.23;3.80;;;20.60;99.90;;;21.49;100.00;97553.28;5020856;28;20446;-80
2021/07/04 10:04:09;;;;;;;4.53;4.03;;;20.50;99.90;;;21.52;100.00;97555.41;5022218;28;21009;-80
2021/07/04 10:06:48;;;;;;;5.00;4.30;;;20.50;99.90;;;21.57;100.00;97555.41;5018985;28;20443;-80
2021/07/04 10:09:18;;;;;;;4.93;4.00;;;20.60;99.90;;;21.53;100.00;97554.34;5025877;28;20893;-80
2021/07/04 10:11:49;;;;;;;5.07;3.90;;;20.60;99.90;;;21.64;100.00;97559.66;5021602;28;20509;-80
2021/07/04 10:14:18;;;;;;;5.30;3.90;;;20.70;99.90;;;21.73;100.00;97552.72;5026402;28;20496;-81
2021/07/04 10:16:49;;;;;;;21.07;13.10;;;20.80;99.90;;;21.68;100.00;97560.72;5025906;28;20987;-82
2021/07/04 10:19:22;;;;;;;4.20;3.30;;;20.70;99.90;;;21.71;100.00;97563.63;5027356;28;20544;-80
2021/07/04 10:21:56;;;;;;;5.17;3.20;;;20.80;99.90;;;21.73;100.00;97553.50;5023447;28;20443;-80